Change the Weather History Date:

Tuesday, December 31, 2013

  Actual Average Record
Temperature  
Mean Temperature 47 °F -  
Max Temperature 52 °F 46 °F 59 °F (2006)
Min Temperature 42 °F 36 °F 19 °F (1996)
Degree Days  
Heating Degree Days 18    
Moisture  
Dew Point 46 °F    
Average Humidity 92    
Maximum Humidity 100    
Minimum Humidity 82    
Precipitation  
Precipitation 0.20 in - - ()
Sea Level Pressure  
Sea Level Pressure 29.79 in    
Wind  
Wind Speed 12 mph ()    
Max Wind Speed 18 mph    
Max Gust Speed 32 mph    
Visibility 7.5 miles    
Events Rain    
Averages and records for this station are not official NWS values.
T = Trace of Precipitation, MM = Missing Value Source: Averaged Metar Reports

Daily Weather History Graph

Daily Weather History Graph

Search for Another Location

Airport or City:

Trip Planner

Search our weather history database for the weather conditions in past years. The results will help you decide how hot, cold, wet, or windy it might be!

Date:

Astronomy

Dec. 31, 2013 Rise Set
Actual Time 8:57 AM CET 5:23 PM CET
Civil Twilight 8:20 AM CET 5:59 PM CET
Nautical Twilight 7:41 AM CET 6:38 PM CET
Astronomical Twilight 7:03 AM CET 7:16 PM CET
Moon 7:31 AM CET (12/31) 4:46 PM CET (12/31)
Length of Visible Light 9h 38m
Length of Day
8h 26m
Waning Crescent, 2% of the Moon is Illuminated
Dec 31
Waning Crescent
Jan 1
New
Jan 8
First Quarter
Jan 16
Full
Jan 24
Last Quarter

Hourly Weather History & Observations

Time (CET) Temp. Windchill Dew Point Humidity Pressure Visibility Wind Dir Wind Speed Gust Speed Precip Events Conditions
12:00 AM 49 °F - 48 °F 93% 29.95 in 4 mi SSE 11.5 mph - -   Clear
12:00 AM 48.2 °F - 48.2 °F 100% 29.92 in 3.7 mi SSE 11.5 mph - N/A   Overcast
12:30 AM 50.0 °F - 48.2 °F 94% 29.92 in 5.0 mi SSE 11.5 mph - N/A   Overcast
1:00 AM 51 °F - 50 °F 94% 29.93 in 16 mi South 16.1 mph - -   Clear
1:00 AM 51.8 °F - 50.0 °F 94% 29.92 in 6.2 mi South 16.1 mph - N/A   Overcast
1:30 AM 51.8 °F - 50.0 °F 94% 29.89 in 6.2 mi South 17.3 mph - N/A   Overcast
2:00 AM 51 °F - 49 °F 92% 29.89 in 8 mi South 17.3 mph - - Rain Light Rain
2:00 AM 51.8 °F - 50.0 °F 94% 29.89 in 6.2 mi South 17.3 mph - N/A Rain Light Rain
2:30 AM 51.8 °F - 50.0 °F 94% 29.86 in 6.2 mi South 17.3 mph 28.8 mph N/A   Overcast
3:00 AM 52 °F - 49 °F 85% 29.88 in 18 mi South 16.1 mph - -   Clear
3:00 AM 51.8 °F - 48.2 °F 88% 29.86 in 6.2 mi South 16.1 mph - N/A   Overcast
3:30 AM 51.8 °F - 48.2 °F 88% 29.86 in 6.2 mi South 17.3 mph - N/A   Overcast
4:00 AM 52 °F - 49 °F 85% 29.86 in 17 mi South 18.4 mph - -   Clear
4:00 AM 51.8 °F - 48.2 °F 88% 29.83 in 6.2 mi South 18.4 mph - N/A   Overcast
4:30 AM 51.8 °F - 50.0 °F 94% 29.83 in 6.2 mi South 16.1 mph - N/A   Overcast
5:00 AM 52 °F - 49 °F 86% 29.82 in 17 mi South 15.0 mph - -   Clear
5:00 AM 51.8 °F - 48.2 °F 88% 29.80 in 6.2 mi SSE 15.0 mph - N/A   Overcast
5:30 AM 51.8 °F - 50.0 °F 94% 29.80 in 2.5 mi South 16.1 mph - N/A Rain Light Rain
6:00 AM 51 °F - 49 °F 92% 29.80 in 2 mi South 17.3 mph - - Rain Light Rain
6:00 AM 50.0 °F - 50.0 °F 100% 29.77 in - South 17.3 mph - N/A Rain Light Rain
6:30 AM 50.0 °F - 50.0 °F 100% 29.77 in - South 15.0 mph - N/A Rain Light Rain
7:00 AM 51 °F - 49 °F 92% 29.78 in 7 mi South 16.1 mph - -   Clear
7:00 AM 51.8 °F - 50.0 °F 94% 29.77 in 6.2 mi South 16.1 mph - N/A   Overcast
7:30 AM 50.0 °F - 48.2 °F 94% 29.77 in 3.7 mi SSE 15.0 mph - N/A Rain Light Rain
8:00 AM 50 °F - 49 °F 95% 29.77 in 10 mi South 16.1 mph - -   Clear
8:00 AM 50.0 °F - 50.0 °F 100% 29.74 in 6.2 mi South 16.1 mph - N/A   Overcast
8:30 AM 51.8 °F - 50.0 °F 94% 29.74 in 6.2 mi South 17.3 mph 32.2 mph N/A   Overcast
9:00 AM 52 °F - 49 °F 86% 29.75 in 14 mi South 15.0 mph - -   Clear
9:00 AM 51.8 °F - 50.0 °F 94% 29.74 in 6.2 mi South 15.0 mph - N/A   Overcast
9:30 AM 51.8 °F - 48.2 °F 88% 29.74 in 6.2 mi SSE 11.5 mph - N/A   Overcast
10:00 AM 52 °F - 49 °F 85% 29.74 in 12 mi South 17.3 mph - -   Clear
10:00 AM 51.8 °F - 48.2 °F 88% 29.74 in 6.2 mi South 17.3 mph - N/A   Mostly Cloudy
10:30 AM 51.8 °F - 50.0 °F 94% 29.71 in 6.2 mi South 13.8 mph - N/A   Overcast
11:00 AM 52 °F - 49 °F 86% 29.73 in 12 mi South 16.1 mph - -   Clear
11:00 AM 51.8 °F - 50.0 °F 94% 29.71 in 6.2 mi South 17.3 mph - N/A   Overcast
11:30 AM 51.8 °F - 50.0 °F 94% 29.71 in 6.2 mi SSE 16.1 mph - N/A   Overcast
12:00 PM 53 °F - 49 °F 82% 29.72 in 12 mi SSE 17.3 mph - -   Clear
12:00 PM 51.8 °F - 50.0 °F 94% 29.71 in 6.2 mi SSE 17.3 mph - N/A   Overcast
12:30 PM 46.4 °F 39.5 °F 42.8 °F 87% 29.71 in - West 17.3 mph - N/A Rain Rain
1:00 PM 46 °F - 44 °F 91% 29.74 in 7 mi West 5.8 mph - - Rain Light Rain
1:00 PM 46.4 °F 43.5 °F 44.6 °F 93% 29.74 in 6.2 mi West 5.8 mph - N/A Rain Light Rain
1:30 PM 44.6 °F 39.2 °F 42.8 °F 93% 29.74 in 5.0 mi West 10.4 mph - N/A Rain Light Rain
2:00 PM 45 °F - 43 °F 89% 29.74 in 5 mi West 5.8 mph - - Rain Light Rain
2:00 PM 44.6 °F 40.7 °F 42.8 °F 93% 29.74 in 5.0 mi West 6.9 mph - N/A Rain Rain
2:30 PM 44.6 °F 42.2 °F 42.8 °F 93% 29.71 in 4.3 mi South 4.6 mph - N/A Rain Light Rain
3:00 PM 44 °F - 42 °F 89% 29.72 in 31 mi South 4.6 mph - -   Clear
3:00 PM 44.6 °F 42.2 °F 42.8 °F 93% 29.71 in 6.2 mi South 4.6 mph - N/A   Unknown
3:30 PM 44.6 °F 42.2 °F 42.8 °F 93% 29.71 in 6.2 mi South 4.6 mph - N/A   Unknown
4:00 PM 45 °F - 43 °F 90% 29.75 in 31 mi South 5.8 mph - -   Clear
4:00 PM 44.6 °F 41.4 °F 42.8 °F 93% 29.74 in 6.2 mi South 5.8 mph - N/A   Unknown
4:30 PM 44.6 °F 41.4 °F 42.8 °F 93% 29.74 in 6.2 mi South 5.8 mph - N/A   Overcast
5:00 PM 45 °F - 43 °F 88% 29.76 in 25 mi South 8.1 mph - -   Clear
5:00 PM 44.6 °F 40.7 °F 42.8 °F 93% 29.74 in 6.2 mi South 6.9 mph - N/A   Mostly Cloudy
5:30 PM 44.6 °F 40.2 °F 42.8 °F 93% 29.74 in 6.2 mi South 8.1 mph - N/A   Mostly Cloudy
6:00 PM 44 °F - 43 °F 93% 29.77 in 25 mi South 13.8 mph - -   Clear
6:00 PM 44.6 °F 38.1 °F 42.8 °F 93% 29.77 in 6.2 mi South 13.8 mph - N/A   Mostly Cloudy
6:30 PM 44.6 °F 39.2 °F 42.8 °F 93% 29.77 in 6.2 mi South 10.4 mph - N/A   Partly Cloudy
7:00 PM 43 °F - 42 °F 94% 29.79 in 15 mi South 6.9 mph - -   Clear
7:00 PM 42.8 °F 38.6 °F 42.8 °F 100% 29.77 in 6.2 mi South 6.9 mph - N/A   Unknown
7:30 PM 42.8 °F 37.5 °F 42.8 °F 100% 29.77 in 6.2 mi South 9.2 mph - N/A   Unknown
8:00 PM 43 °F - 42 °F 96% 29.79 in 13 mi South 8.1 mph - -   Clear
8:00 PM 42.8 °F 38.0 °F 42.8 °F 100% 29.77 in 6.2 mi South 8.1 mph - N/A   Unknown
8:30 PM 42.8 °F 37.5 °F 42.8 °F 100% 29.77 in 6.2 mi South 9.2 mph - N/A   Partly Cloudy
9:00 PM 42 °F - 40 °F 92% 29.80 in 13 mi South 9.2 mph - -   Clear
9:00 PM 42.8 °F 37.5 °F 41.0 °F 93% 29.77 in 6.2 mi South 9.2 mph - N/A   Partly Cloudy
9:30 PM 42.8 °F 37.0 °F 41.0 °F 93% 29.80 in 6.2 mi South 10.4 mph - N/A   Unknown
10:00 PM 43 °F - 41 °F 90% 29.82 in 12 mi South 9.2 mph - -   Clear
10:00 PM 42.8 °F 37.5 °F 41.0 °F 93% 29.80 in 6.2 mi South 9.2 mph - N/A   Unknown
10:30 PM 42.8 °F 37.0 °F 41.0 °F 93% 29.80 in 6.2 mi South 10.4 mph - N/A   Unknown
11:00 PM 43 °F - 41 °F 92% 29.81 in 11 mi South 10.4 mph - -   Clear
11:00 PM 42.8 °F 37.0 °F 41.0 °F 93% 29.80 in 6.2 mi South 10.4 mph - N/A   Unknown
11:30 PM 42.8 °F 37.0 °F 41.0 °F 93% 29.80 in 6.2 mi South 10.4 mph - N/A   Scattered Clouds